Time,TemperatureF,DewpointF,PressureIn,WindDirection,WindDirectionDegrees,WindSpeedMPH,WindSpeedGustMPH,Humidity,HourlyPrecipIn,Conditions,Clouds,dailyrainin,SolarRadiationWatts/m^2,SoftwareType,DateUTC
2013-02-11 00:02:00,49.0,23.0,-100.00,SSE,164,7.0,8.0,35,0.00,,,0.53,0.000000,,2013-02-11 06:02:00,
2013-02-11 00:32:00,45.0,16.0,-100.00,NE,50,0.0,7.0,31,0.00,,,0.53,0.000000,,2013-02-11 06:32:00,
2013-02-11 00:42:00,45.0,16.0,-100.00,NE,50,0.0,7.0,31,0.00,,,0.53,0.000000,,2013-02-11 06:42:00,
2013-02-11 00:52:00,45.0,16.0,-100.00,NE,50,0.0,7.0,31,0.00,,,0.53,0.000000,,2013-02-11 06:52:00,
2013-02-11 01:32:00,46.0,30.0,-100.00,East,96,5.0,12.0,54,0.00,,,0.00,0.000000,,2013-02-11 07:32:00,
2013-02-11 01:42:00,46.0,30.0,-100.00,East,96,5.0,12.0,54,0.00,,,0.00,0.000000,,2013-02-11 07:42:00,
2013-02-11 01:52:00,46.0,30.0,-100.00,East,96,5.0,12.0,54,0.00,,,0.00,0.000000,,2013-02-11 07:52:00,
2013-02-11 02:01:00,46.0,30.0,-100.00,East,96,5.0,12.0,54,0.00,,,0.00,0.000000,,2013-02-11 08:01:00,
2013-02-11 02:32:00,46.0,30.0,-100.00,ESE,121,5.0,7.0,53,0.00,,,0.00,0.000000,,2013-02-11 08:32:00,
2013-02-11 02:42:00,46.0,30.0,-100.00,ESE,121,5.0,7.0,53,0.00,,,0.00,0.000000,,2013-02-11 08:42:00,
2013-02-11 02:52:00,46.0,30.0,-100.00,ESE,121,5.0,7.0,53,0.00,,,0.00,0.000000,,2013-02-11 08:52:00,
2013-02-11 03:01:00,46.0,30.0,-100.00,ESE,121,5.0,7.0,53,0.00,,,0.00,0.000000,,2013-02-11 09:01:00,
2013-02-11 03:32:00,48.0,28.0,-100.00,ENE,67,9.0,12.0,46,0.00,,,0.00,0.000000,,2013-02-11 09:32:00,
2013-02-11 03:42:00,48.0,28.0,-100.00,ENE,67,9.0,12.0,46,0.00,,,0.00,0.000000,,2013-02-11 09:42:00,
2013-02-11 03:52:00,48.0,28.0,-100.00,ENE,67,9.0,12.0,46,0.00,,,0.00,0.000000,,2013-02-11 09:52:00,
2013-02-11 04:01:00,48.0,28.0,-100.00,ENE,67,9.0,12.0,46,0.00,,,0.00,0.000000,,2013-02-11 10:01:00,
2013-02-11 04:32:00,47.0,26.0,-100.00,ENE,60,8.0,14.0,43,0.00,,,0.00,0.000000,,2013-02-11 10:32:00,
2013-02-11 04:42:00,47.0,26.0,-100.00,ENE,60,8.0,14.0,43,0.00,,,0.00,0.000000,,2013-02-11 10:42:00,
2013-02-11 04:52:00,47.0,26.0,-100.00,ENE,60,8.0,14.0,43,0.00,,,0.00,0.000000,,2013-02-11 10:52:00,
2013-02-11 05:01:00,47.0,26.0,-100.00,ENE,60,8.0,14.0,43,0.00,,,0.00,0.000000,,2013-02-11 11:01:00,
2013-02-11 05:32:00,47.0,27.0,-100.00,ENE,76,10.0,19.0,46,0.00,,,0.00,0.000000,,2013-02-11 11:32:00,
2013-02-11 05:42:00,47.0,27.0,-100.00,ENE,76,10.0,19.0,46,0.00,,,0.00,0.000000,,2013-02-11 11:42:00,
2013-02-11 05:52:00,47.0,27.0,-100.00,ENE,76,10.0,19.0,46,0.00,,,0.00,0.000000,,2013-02-11 11:52:00,
2013-02-11 06:03:00,47.0,27.0,-100.00,ENE,76,10.0,19.0,46,0.00,,,0.00,0.000000,,2013-02-11 12:03:00,
2013-02-11 06:32:00,46.0,28.0,-100.00,ENE,74,9.0,16.0,50,0.00,,,-99.99,0.000000,,2013-02-11 12:32:00,
2013-02-11 06:42:00,46.0,28.0,-100.00,ENE,74,9.0,16.0,50,0.00,,,-99.99,0.000000,,2013-02-11 12:42:00,
2013-02-11 06:52:00,46.0,28.0,-100.00,ENE,74,9.0,16.0,50,0.00,,,-99.99,0.000000,,2013-02-11 12:52:00,
2013-02-11 07:02:00,46.0,28.0,-100.00,ENE,74,9.0,16.0,50,0.00,,,-99.99,0.000000,,2013-02-11 13:02:00,
2013-02-11 07:33:00,46.0,28.0,-100.00,East,88,11.0,15.0,49,0.00,,,-99.99,0.000000,,2013-02-11 13:33:00,
2013-02-11 07:42:00,46.0,28.0,-100.00,East,88,11.0,15.0,49,0.00,,,-99.99,0.000000,,2013-02-11 13:42:00,
2013-02-11 07:52:00,46.0,28.0,-100.00,East,88,11.0,15.0,49,0.00,,,-99.99,0.000000,,2013-02-11 13:52:00,
2013-02-11 08:02:00,46.0,28.0,-100.00,East,88,11.0,15.0,49,0.00,,,-99.99,0.000000,,2013-02-11 14:02:00,
2013-02-11 08:33:00,46.0,28.0,-100.00,ENE,57,9.0,17.0,49,0.00,,,-99.99,7.000000,,2013-02-11 14:33:00,
2013-02-11 08:42:00,46.0,28.0,-100.00,ENE,57,9.0,17.0,49,0.00,,,-99.99,7.000000,,2013-02-11 14:42:00,
2013-02-11 08:53:00,46.0,28.0,-100.00,ENE,57,9.0,17.0,49,0.00,,,-99.99,7.000000,,2013-02-11 14:53:00,
2013-02-11 09:02:00,46.0,28.0,-100.00,ENE,57,9.0,17.0,49,0.00,,,-99.99,7.000000,,2013-02-11 15:02:00,
2013-02-11 09:32:00,47.0,29.0,-100.00,ENE,64,10.0,17.0,49,0.00,,,0.00,74.000000,,2013-02-11 15:32:00,
2013-02-11 09:42:00,47.0,29.0,-100.00,ENE,64,10.0,17.0,49,0.00,,,0.00,74.000000,,2013-02-11 15:42:00,
2013-02-11 09:52:00,47.0,29.0,-100.00,ENE,64,10.0,17.0,49,0.00,,,0.00,74.000000,,2013-02-11 15:52:00,
2013-02-11 10:02:00,47.0,29.0,-100.00,ENE,64,10.0,17.0,49,0.00,,,0.00,74.000000,,2013-02-11 16:02:00,
2013-02-11 10:32:00,49.0,27.0,-100.00,ENE,58,13.0,19.0,43,0.00,,,0.00,269.000000,,2013-02-11 16:32:00,
2013-02-11 10:42:00,49.0,27.0,-100.00,ENE,58,13.0,19.0,43,0.00,,,0.00,269.000000,,2013-02-11 16:42:00,
2013-02-11 10:52:00,49.0,27.0,-100.00,ENE,58,13.0,19.0,43,0.00,,,0.00,269.000000,,2013-02-11 16:52:00,
2013-02-11 11:02:00,49.0,27.0,-100.00,ENE,58,13.0,19.0,43,0.00,,,0.00,269.000000,,2013-02-11 17:02:00,
2013-02-11 11:32:00,49.0,27.0,-100.00,ENE,69,11.0,19.0,43,0.00,,,0.00,272.000000,,2013-02-11 17:32:00,
2013-02-11 11:42:00,49.0,27.0,-100.00,ENE,69,11.0,19.0,43,0.00,,,0.00,272.000000,,2013-02-11 17:42:00,
2013-02-11 11:53:00,49.0,27.0,-100.00,ENE,69,11.0,19.0,43,0.00,,,0.00,272.000000,,2013-02-11 17:53:00,
2013-02-11 12:02:00,49.0,27.0,-100.00,ENE,69,11.0,19.0,43,0.00,,,0.00,272.000000,,2013-02-11 18:02:00,
2013-02-11 12:32:00,50.0,27.0,-100.00,ENE,61,10.0,17.0,40,0.00,,,0.00,300.000000,,2013-02-11 18:32:00,
2013-02-11 12:42:00,50.0,27.0,-100.00,ENE,61,10.0,17.0,40,0.00,,,0.00,300.000000,,2013-02-11 18:42:00,
2013-02-11 12:53:00,50.0,27.0,-100.00,ENE,61,10.0,17.0,40,0.00,,,0.00,300.000000,,2013-02-11 18:53:00,
2013-02-11 13:02:00,50.0,27.0,-100.00,ENE,61,10.0,17.0,40,0.00,,,0.00,300.000000,,2013-02-11 19:02:00,
2013-02-11 14:32:00,54.0,30.0,-100.00,East,85,10.0,17.0,39,-99.99,,,0.00,388.000000,,2013-02-11 20:32:00,
2013-02-11 14:42:00,54.0,30.0,-100.00,East,85,10.0,17.0,39,-99.99,,,0.00,388.000000,,2013-02-11 20:42:00,
2013-02-11 14:52:00,54.0,30.0,-100.00,East,85,10.0,17.0,39,-99.99,,,0.00,388.000000,,2013-02-11 20:52:00,
2013-02-11 15:02:00,54.0,30.0,-100.00,East,85,10.0,17.0,39,-99.99,,,0.00,388.000000,,2013-02-11 21:02:00,
2013-02-11 15:32:00,55.0,29.0,-100.00,ESE,106,10.0,15.0,37,0.00,,,0.00,483.000000,,2013-02-11 21:32:00,
2013-02-11 15:42:00,55.0,29.0,-100.00,ESE,106,10.0,15.0,37,0.00,,,0.00,483.000000,,2013-02-11 21:42:00,
2013-02-11 15:52:00,55.0,29.0,-100.00,ESE,106,10.0,15.0,37,0.00,,,0.00,483.000000,,2013-02-11 21:52:00,
2013-02-11 16:02:00,55.0,29.0,-100.00,ESE,106,10.0,15.0,37,0.00,,,0.00,483.000000,,2013-02-11 22:02:00,
2013-02-11 16:32:00,54.0,30.0,-100.00,ESE,105,9.0,17.0,39,0.00,,,0.00,367.000000,,2013-02-11 22:32:00,
2013-02-11 16:42:00,54.0,30.0,-100.00,ESE,105,9.0,17.0,39,0.00,,,0.00,367.000000,,2013-02-11 22:42:00,
2013-02-11 16:52:00,54.0,30.0,-100.00,ESE,105,9.0,17.0,39,0.00,,,0.00,367.000000,,2013-02-11 22:52:00,
2013-02-11 17:02:00,54.0,30.0,-100.00,ESE,105,9.0,17.0,39,0.00,,,0.00,367.000000,,2013-02-11 23:02:00,
2013-02-11 17:32:00,54.0,30.0,-100.00,ESE,110,9.0,15.0,39,0.00,,,0.00,280.000000,,2013-02-11 23:32:00,
2013-02-11 17:42:00,54.0,30.0,-100.00,ESE,110,9.0,15.0,39,0.00,,,0.00,280.000000,,2013-02-11 23:42:00,
2013-02-11 17:52:00,54.0,30.0,-100.00,ESE,110,9.0,15.0,39,0.00,,,0.00,280.000000,,2013-02-11 23:52:00,
2013-02-11 18:02:00,54.0,30.0,-100.00,ESE,110,9.0,15.0,39,0.00,,,0.00,280.000000,,2013-02-12 00:02:00,
2013-02-11 18:32:00,53.0,31.0,-100.00,ESE,113,9.0,15.0,43,0.00,,,0.00,38.000000,,2013-02-12 00:32:00,
2013-02-11 18:42:00,53.0,31.0,-100.00,ESE,113,9.0,15.0,43,0.00,,,0.00,38.000000,,2013-02-12 00:42:00,
2013-02-11 18:52:00,53.0,31.0,-100.00,ESE,113,9.0,15.0,43,0.00,,,0.00,38.000000,,2013-02-12 00:52:00,
2013-02-11 19:02:00,53.0,31.0,-100.00,ESE,113,9.0,15.0,43,0.00,,,0.00,38.000000,,2013-02-12 01:02:00,
2013-02-11 19:32:00,52.0,32.0,-100.00,ESE,110,8.0,14.0,47,0.00,,,-99.99,1.000000,,2013-02-12 01:32:00,
2013-02-11 19:42:00,52.0,32.0,-100.00,ESE,110,8.0,14.0,47,0.00,,,-99.99,1.000000,,2013-02-12 01:42:00,
2013-02-11 19:52:00,52.0,32.0,-100.00,ESE,110,8.0,14.0,47,0.00,,,-99.99,1.000000,,2013-02-12 01:52:00,
2013-02-11 20:01:00,52.0,32.0,-100.00,ESE,110,8.0,14.0,47,0.00,,,-99.99,1.000000,,2013-02-12 02:01:00,
2013-02-11 20:32:00,51.0,35.0,-100.00,ESE,106,7.0,12.0,55,0.00,,,0.00,0.000000,,2013-02-12 02:32:00,
2013-02-11 20:42:00,51.0,35.0,-100.00,ESE,106,7.0,12.0,55,0.00,,,0.00,0.000000,,2013-02-12 02:42:00,
2013-02-11 20:53:00,51.0,35.0,-100.00,ESE,106,7.0,12.0,55,0.00,,,0.00,0.000000,,2013-02-12 02:53:00,
2013-02-11 21:02:00,51.0,35.0,-100.00,ESE,106,7.0,12.0,55,0.00,,,0.00,0.000000,,2013-02-12 03:02:00,
2013-02-11 21:32:00,50.0,36.0,-100.00,ESE,111,8.0,15.0,59,0.00,,,0.00,0.000000,,2013-02-12 03:32:00,
2013-02-11 21:42:00,50.0,36.0,-100.00,ESE,111,8.0,15.0,59,0.00,,,0.00,0.000000,,2013-02-12 03:42:00,
2013-02-11 21:52:00,50.0,36.0,-100.00,ESE,111,8.0,15.0,59,0.00,,,0.00,0.000000,,2013-02-12 03:52:00,
2013-02-11 22:01:00,50.0,36.0,-100.00,ESE,111,8.0,15.0,59,0.00,,,0.00,0.000000,,2013-02-12 04:01:00,
2013-02-11 22:32:00,48.0,36.0,-100.00,ESE,110,10.0,15.0,63,0.00,,,0.00,0.000000,,2013-02-12 04:32:00,
2013-02-11 22:42:00,48.0,36.0,-100.00,ESE,110,10.0,15.0,63,0.00,,,0.00,0.000000,,2013-02-12 04:42:00,
2013-02-11 22:52:00,48.0,36.0,-100.00,ESE,110,10.0,15.0,63,0.00,,,0.00,0.000000,,2013-02-12 04:52:00,
2013-02-11 23:01:00,48.0,36.0,-100.00,ESE,110,10.0,15.0,63,0.00,,,0.00,0.000000,,2013-02-12 05:01:00,
2013-02-11 23:32:00,47.0,38.0,-100.00,ESE,113,11.0,18.0,71,0.00,,,0.00,0.000000,,2013-02-12 05:32:00,
2013-02-11 23:42:00,47.0,38.0,-100.00,ESE,113,11.0,18.0,71,0.00,,,0.00,0.000000,,2013-02-12 05:42:00,
2013-02-11 23:52:00,47.0,38.0,-100.00,ESE,113,11.0,18.0,71,0.00,,,0.00,0.000000,,2013-02-12 05:52:00,